This is the latest recevied weather packets stored in our database for station/object N5PRN. If no packets are shown the sender has not sent any weather packets the latest 10 day(s).
| Time | Temp. | Humidity | Pressure | Rain* | Wind** | Luminosity | Snow |
|---|---|---|---|---|---|---|---|
| 1777764220 | 20.56° C | 49% | 1017.6 hPa | 0 mm | - | 51 W/m² | - |
| 1777761186 | 22.22° C | 47% | 1017.8 hPa | 0 mm | - | 337 W/m² | - |
| 1777760580 | 22.22° C | 43% | 1017.7 hPa | 0 mm | - | 373 W/m² | - |
| 1777759365 | 22.78° C | 42% | 1017.6 hPa | 0 mm | - | 474 W/m² | - |
| 1777759062 | 22.78° C | 41% | 1017.5 hPa | 0 mm | - | 481 W/m² | - |
| 1777757851 | 23.33° C | 44% | 1017.5 hPa | 0 mm | - | 542 W/m² | - |
| 1777757548 | 23.33° C | 39% | 1017.6 hPa | 0 mm | - | 551 W/m² | - |
| 1777756640 | 23.33° C | 39% | 1017.5 hPa | 0 mm | - | 600 W/m² | - |
| 1777755726 | 23.33° C | 36% | 1017.7 hPa | 0 mm | - | 629 W/m² | - |
| 1777755423 | 22.78° C | 41% | 1017.6 hPa | 0 mm | - | 590 W/m² | - |
| 1777754811 | 23.33° C | 42% | 1017.8 hPa | 0 mm | - | 666 W/m² | - |
| 1777753603 | 23.33° C | 41% | 1018.3 hPa | 0 mm | - | 710 W/m² | - |
| 1777753301 | 23.33° C | 45% | 1018.3 hPa | 0 mm | - | 709 W/m² | - |
| 1777752997 | 22.78° C | 38% | 1018.2 hPa | 0 mm | - | 711 W/m² | - |
| 1777752694 | 22.78° C | 40% | 1018.4 hPa | 0 mm | - | 703 W/m² | - |
| 1777752390 | 23.33° C | 38% | 1018.4 hPa | 0 mm | - | 675 W/m² | - |
| 1777751786 | 22.78° C | 51% | 1018.5 hPa | 0 mm | - | 764 W/m² | - |
| 1777751481 | 22.78° C | 42% | 1018.4 hPa | 0 mm | - | 674 W/m² | - |
| 1777750571 | 23.33° C | 43% | 1018.7 hPa | 0 mm | - | 741 W/m² | - |
| 1777750268 | 23.33° C | 41% | 1019 hPa | 0 mm | - | 758 W/m² | - |
| 1777749964 | 22.78° C | 48% | 1018.6 hPa | 0 mm | - | 791 W/m² | - |
| 1777749662 | 22.78° C | 48% | 1018.8 hPa | 0 mm | - | 814 W/m² | - |
| 1777749358 | 22.78° C | 44% | 1018.7 hPa | 0 mm | - | 815 W/m² | - |
| 1777749056 | 22.22° C | 41% | 1018.7 hPa | 0 mm | - | 818 W/m² | - |
| 1777748753 | 22.78° C | 42% | 1018.7 hPa | 0 mm | - | 815 W/m² | - |
* Rain latest hour (hover to see other rain measurements)
** Current wind speed in m/s (hover to see current wind gust speed)